sensor_id;sensor_type;location;lat;lon;timestamp;pressure;altitude;pressure_sealevel;temperature;humidity
47556;BME280;33291;46.222;26.460;2023-07-20T00:00:34;95953.13;;;19.06;100.00
47556;BME280;33291;46.222;26.460;2023-07-20T00:03:13;95949.69;;;19.06;100.00
47556;BME280;33291;46.222;26.460;2023-07-20T00:05:44;95948.66;;;19.07;100.00
47556;BME280;33291;46.222;26.460;2023-07-20T00:08:10;95952.31;;;19.06;100.00
47556;BME280;33291;46.222;26.460;2023-07-20T00:10:35;95943.59;;;18.98;100.00
47556;BME280;33291;46.222;26.460;2023-07-20T00:13:01;95962.47;;;19.02;100.00
47556;BME280;33291;46.222;26.460;2023-07-20T00:15:26;95943.19;;;19.02;100.00
47556;BME280;33291;46.222;26.460;2023-07-20T00:17:51;95948.47;;;19.02;100.00
47556;BME280;33291;46.222;26.460;2023-07-20T00:20:17;95947.66;;;19.01;100.00
47556;BME280;33291;46.222;26.460;2023-07-20T00:22:43;95942.78;;;19.05;100.00
47556;BME280;33291;46.222;26.460;2023-07-20T00:25:09;95936.28;;;19.00;100.00
47556;BME280;33291;46.222;26.460;2023-07-20T00:27:36;95931.63;;;19.03;100.00
47556;BME280;33291;46.222;26.460;2023-07-20T00:30:03;95948.06;;;19.05;100.00
47556;BME280;33291;46.222;26.460;2023-07-20T00:32:29;95942.97;;;19.03;100.00
47556;BME280;33291;46.222;26.460;2023-07-20T00:34:54;95935.69;;;18.98;100.00
47556;BME280;33291;46.222;26.460;2023-07-20T00:37:20;95945.63;;;19.03;100.00
47556;BME280;33291;46.222;26.460;2023-07-20T00:39:45;95945.63;;;19.03;100.00
47556;BME280;33291;46.222;26.460;2023-07-20T00:42:10;95948.06;;;19.05;100.00
47556;BME280;33291;46.222;26.460;2023-07-20T00:44:36;95940.34;;;19.03;100.00
47556;BME280;33291;46.222;26.460;2023-07-20T00:47:01;95938.53;;;18.97;100.00
47556;BME280;33291;46.222;26.460;2023-07-20T00:49:27;95943.19;;;19.02;100.00
47556;BME280;33291;46.222;26.460;2023-07-20T00:51:52;95948.88;;;18.98;100.00
47556;BME280;33291;46.222;26.460;2023-07-20T00:54:18;95940.38;;;18.96;100.00
47556;BME280;33291;46.222;26.460;2023-07-20T00:56:44;95947.25;;;18.97;100.00
47556;BME280;33291;46.222;26.460;2023-07-20T00:59:10;95934.25;;;18.96;100.00
47556;BME280;33291;46.222;26.460;2023-07-20T01:01:35;95932.44;;;18.96;100.00
47556;BME280;33291;46.222;26.460;2023-07-20T01:04:01;95926.13;;;18.97;100.00
47556;BME280;33291;46.222;26.460;2023-07-20T01:06:41;95905.44;;;18.94;100.00
47556;BME280;33291;46.222;26.460;2023-07-20T01:09:19;95895.09;;;18.99;100.00
47556;BME280;33291;46.222;26.460;2023-07-20T01:12:02;95888.59;;;18.95;100.00
47556;BME280;33291;46.222;26.460;2023-07-20T01:14:29;95899.75;;;18.97;100.00
47556;BME280;33291;46.222;26.460;2023-07-20T01:16:55;95896.50;;;18.95;100.00
47556;BME280;33291;46.222;26.460;2023-07-20T01:19:20;95895.28;;;18.91;100.00
47556;BME280;33291;46.222;26.460;2023-07-20T01:27:33;95882.28;;;18.83;100.00
47556;BME280;33291;46.222;26.460;2023-07-20T01:32:34;95885.56;;;18.85;100.00
47556;BME280;33291;46.222;26.460;2023-07-20T01:35:01;95885.53;;;18.72;100.00
47556;BME280;33291;46.222;26.460;2023-07-20T01:37:29;95895.69;;;18.75;100.00
47556;BME280;33291;46.222;26.460;2023-07-20T01:39:55;95887.78;;;18.68;100.00
47556;BME280;33291;46.222;26.460;2023-07-20T01:42:22;95885.56;;;18.65;100.00
47556;BME280;33291;46.222;26.460;2023-07-20T01:44:51;95881.72;;;18.68;100.00
47556;BME280;33291;46.222;26.460;2023-07-20T01:47:18;95874.00;;;18.66;100.00
47556;BME280;33291;46.222;26.460;2023-07-20T01:49:43;95873.19;;;18.65;100.00
47556;BME280;33291;46.222;26.460;2023-07-20T01:52:08;95868.13;;;18.57;100.00
47556;BME280;33291;46.222;26.460;2023-07-20T01:54:34;95863.25;;;18.54;100.00
47556;BME280;33291;46.222;26.460;2023-07-20T01:56:59;95881.50;;;18.56;100.00
47556;BME280;33291;46.222;26.460;2023-07-20T01:59:25;95877.44;;;18.53;100.00
47556;BME280;33291;46.222;26.460;2023-07-20T02:01:50;95879.09;;;18.54;100.00
47556;BME280;33291;46.222;26.460;2023-07-20T02:04:16;95877.63;;;18.58;100.00
47556;BME280;33291;46.222;26.460;2023-07-20T02:06:41;95870.75;;;18.57;100.00
47556;BME280;33291;46.222;26.460;2023-07-20T02:09:07;95869.94;;;18.57;100.00
47556;BME280;33291;46.222;26.460;2023-07-20T02:11:33;95870.97;;;18.56;100.00
47556;BME280;33291;46.222;26.460;2023-07-20T02:13:58;95883.53;;;18.54;100.00
47556;BME280;33291;46.222;26.460;2023-07-20T02:16:24;95894.91;;;18.54;100.00
47556;BME280;33291;46.222;26.460;2023-07-20T02:18:49;95857.56;;;18.31;100.00
47556;BME280;33291;46.222;26.460;2023-07-20T02:21:15;95885.59;;;18.45;100.00
47556;BME280;33291;46.222;26.460;2023-07-20T02:23:40;95884.34;;;18.47;100.00
47556;BME280;33291;46.222;26.460;2023-07-20T02:26:06;95879.28;;;18.46;100.00
47556;BME280;33291;46.222;26.460;2023-07-20T02:28:31;95886.56;;;18.51;100.00
47556;BME280;33291;46.222;26.460;2023-07-20T02:30:57;95893.47;;;18.52;100.00
47556;BME280;33291;46.222;26.460;2023-07-20T02:33:22;95883.53;;;18.47;100.00
47556;BME280;33291;46.222;26.460;2023-07-20T02:35:48;95890.44;;;18.48;100.00
47556;BME280;33291;46.222;26.460;2023-07-20T02:38:14;95888.00;;;18.46;100.00
47556;BME280;33291;46.222;26.460;2023-07-20T02:40:39;95884.94;;;18.43;100.00
47556;BME280;33291;46.222;26.460;2023-07-20T02:43:05;95888.00;;;18.40;100.00
47556;BME280;33291;46.222;26.460;2023-07-20T02:45:30;95888.41;;;18.37;100.00
47556;BME280;33291;46.222;26.460;2023-07-20T02:47:56;95878.66;;;18.31;100.00
47556;BME280;33291;46.222;26.460;2023-07-20T02:50:22;95882.75;;;18.33;100.00
47556;BME280;33291;46.222;26.460;2023-07-20T02:52:47;95879.88;;;18.28;100.00
47556;BME280;33291;46.222;26.460;2023-07-20T02:55:13;95877.88;;;18.30;100.00
47556;BME280;33291;46.222;26.460;2023-07-20T02:57:38;95879.06;;;18.27;100.00
47556;BME280;33291;46.222;26.460;2023-07-20T03:00:04;95867.31;;;18.23;100.00
47556;BME280;33291;46.222;26.460;2023-07-20T03:02:33;95866.72;;;18.21;100.00
47556;BME280;33291;46.222;26.460;2023-07-20T03:04:58;95862.22;;;18.22;100.00
47556;BME280;33291;46.222;26.460;2023-07-20T03:07:26;95873.81;;;18.27;100.00
47556;BME280;33291;46.222;26.460;2023-07-20T03:09:53;95875.44;;;18.28;100.00
47556;BME280;33291;46.222;26.460;2023-07-20T03:12:18;95875.22;;;18.23;100.00
47556;BME280;33291;46.222;26.460;2023-07-20T03:14:44;95876.25;;;18.29;100.00
47556;BME280;33291;46.222;26.460;2023-07-20T03:17:09;95876.03;;;18.31;100.00
47556;BME280;33291;46.222;26.460;2023-07-20T03:19:34;95875.03;;;18.32;100.00
47556;BME280;33291;46.222;26.460;2023-07-20T03:22:00;95869.97;;;18.30;100.00
47556;BME280;33291;46.222;26.460;2023-07-20T03:24:25;95862.88;;;18.24;100.00
47556;BME280;33291;46.222;26.460;2023-07-20T03:26:51;95868.31;;;18.29;100.00
47556;BME280;33291;46.222;26.460;2023-07-20T03:29:16;95862.25;;;18.28;100.00
47556;BME280;33291;46.222;26.460;2023-07-20T03:31:42;95864.25;;;18.26;100.00
47556;BME280;33291;46.222;26.460;2023-07-20T03:34:07;95860.44;;;18.22;100.00
47556;BME280;33291;46.222;26.460;2023-07-20T03:36:34;95854.31;;;18.22;100.00
47556;BME280;33291;46.222;26.460;2023-07-20T03:38:59;95853.13;;;18.24;100.00
47556;BME280;33291;46.222;26.460;2023-07-20T03:41:24;95849.28;;;18.27;100.00
47556;BME280;33291;46.222;26.460;2023-07-20T03:43:50;95840.16;;;18.29;100.00
47556;BME280;33291;46.222;26.460;2023-07-20T03:46:16;95837.31;;;18.31;100.00
47556;BME280;33291;46.222;26.460;2023-07-20T03:48:41;95848.06;;;18.29;100.00
47556;BME280;33291;46.222;26.460;2023-07-20T03:51:06;95854.34;;;18.28;100.00
47556;BME280;33291;46.222;26.460;2023-07-20T03:53:32;95852.31;;;18.17;100.00
47556;BME280;33291;46.222;26.460;2023-07-20T03:55:57;95855.16;;;18.22;100.00
47556;BME280;33291;46.222;26.460;2023-07-20T03:58:23;95852.72;;;18.27;100.00
47556;BME280;33291;46.222;26.460;2023-07-20T04:00:50;95852.31;;;18.31;100.00
47556;BME280;33291;46.222;26.460;2023-07-20T04:03:17;95846.63;;;18.34;100.00
47556;BME280;33291;46.222;26.460;2023-07-20T04:05:43;95854.13;;;18.37;100.00
47556;BME280;33291;46.222;26.460;2023-07-20T04:08:09;95853.13;;;18.38;100.00
47556;BME280;33291;46.222;26.460;2023-07-20T04:10:36;95867.31;;;18.43;100.00
47556;BME280;33291;46.222;26.460;2023-07-20T04:13:02;95861.84;;;18.45;100.00
47556;BME280;33291;46.222;26.460;2023-07-20T04:15:28;95863.25;;;18.47;100.00
47556;BME280;33291;46.222;26.460;2023-07-20T04:17:53;95855.94;;;18.43;100.00
47556;BME280;33291;46.222;26.460;2023-07-20T04:20:20;95864.28;;;18.40;100.00
47556;BME280;33291;46.222;26.460;2023-07-20T04:22:46;95860.81;;;18.46;100.00
47556;BME280;33291;46.222;26.460;2023-07-20T04:25:11;95863.66;;;18.51;100.00
47556;BME280;33291;46.222;26.460;2023-07-20T04:27:37;95862.63;;;18.52;100.00
47556;BME280;33291;46.222;26.460;2023-07-20T04:30:03;95872.19;;;18.60;100.00
47556;BME280;33291;46.222;26.460;2023-07-20T04:32:29;95865.25;;;18.65;100.00
47556;BME280;33291;46.222;26.460;2023-07-20T04:34:54;95867.50;;;18.75;100.00
47556;BME280;33291;46.222;26.460;2023-07-20T04:37:19;95863.81;;;18.83;100.00
47556;BME280;33291;46.222;26.460;2023-07-20T04:39:45;95872.38;;;18.92;100.00
47556;BME280;33291;46.222;26.460;2023-07-20T04:42:11;95864.63;;;18.97;99.44
47556;BME280;33291;46.222;26.460;2023-07-20T04:44:36;95874.13;;;19.11;99.03
47556;BME280;33291;46.222;26.460;2023-07-20T04:47:02;95868.84;;;19.18;98.49
47556;BME280;33291;46.222;26.460;2023-07-20T04:49:28;95875.72;;;19.26;98.13
47556;BME280;33291;46.222;26.460;2023-07-20T04:51:53;95873.03;;;19.32;98.29
47556;BME280;33291;46.222;26.460;2023-07-20T04:54:19;95866.31;;;19.37;97.97
47556;BME280;33291;46.222;26.460;2023-07-20T04:56:45;95869.97;;;19.42;97.85
47556;BME280;33291;46.222;26.460;2023-07-20T04:59:10;95863.06;;;19.41;98.04
47556;BME280;33291;46.222;26.460;2023-07-20T05:01:36;95867.06;;;19.50;98.07
47556;BME280;33291;46.222;26.460;2023-07-20T05:04:02;95867.47;;;19.54;98.11
47556;BME280;33291;46.222;26.460;2023-07-20T05:06:27;95871.94;;;19.53;98.17
47556;BME280;33291;46.222;26.460;2023-07-20T05:08:53;95872.28;;;19.64;97.71
47556;BME280;33291;46.222;26.460;2023-07-20T05:11:18;95871.06;;;19.66;97.67
47556;BME280;33291;46.222;26.460;2023-07-20T05:13:43;95871.81;;;19.74;97.58
47556;BME280;33291;46.222;26.460;2023-07-20T05:16:09;95881.97;;;19.77;97.41
47556;BME280;33291;46.222;26.460;2023-07-20T05:18:35;95871.00;;;19.80;96.94
47556;BME280;33291;46.222;26.460;2023-07-20T05:21:00;95877.47;;;19.91;96.64
47556;BME280;33291;46.222;26.460;2023-07-20T05:23:26;95888.56;;;19.99;96.32
47556;BME280;33291;46.222;26.460;2023-07-20T05:25:58;95888.34;;;20.08;96.13
47556;BME280;33291;46.222;26.460;2023-07-20T05:28:25;95889.50;;;20.12;96.40
47556;BME280;33291;46.222;26.460;2023-07-20T05:30:51;95892.13;;;20.18;96.31
47556;BME280;33291;46.222;26.460;2023-07-20T05:33:20;95884.13;;;20.25;96.09
47556;BME280;33291;46.222;26.460;2023-07-20T05:35:47;95880.84;;;20.30;95.42
47556;BME280;33291;46.222;26.460;2023-07-20T05:38:12;95881.16;;;20.47;94.92
47556;BME280;33291;46.222;26.460;2023-07-20T05:40:39;95893.66;;;20.58;94.76
47556;BME280;33291;46.222;26.460;2023-07-20T05:43:05;95865.97;;;20.61;93.77
47556;BME280;33291;46.222;26.460;2023-07-20T05:45:32;95895.44;;;20.89;91.57
47556;BME280;33291;46.222;26.460;2023-07-20T05:47:57;95890.66;;;20.98;89.72
47556;BME280;33291;46.222;26.460;2023-07-20T05:50:23;95886.06;;;21.12;89.24
47556;BME280;33291;46.222;26.460;2023-07-20T05:52:48;95881.41;;;21.26;88.34
47556;BME280;33291;46.222;26.460;2023-07-20T05:55:14;95898.63;;;21.35;87.43
47556;BME280;33291;46.222;26.460;2023-07-20T05:57:39;95892.00;;;21.44;86.55
47556;BME280;33291;46.222;26.460;2023-07-20T06:00:08;95880.31;;;21.52;86.01
47556;BME280;33291;46.222;26.460;2023-07-20T06:02:34;95889.13;;;21.64;84.58
47556;BME280;33291;46.222;26.460;2023-07-20T06:04:59;95880.66;;;21.74;83.46
47556;BME280;33291;46.222;26.460;2023-07-20T06:07:25;95884.59;;;21.83;82.16
47556;BME280;33291;46.222;26.460;2023-07-20T06:09:50;95884.50;;;21.90;81.70
47556;BME280;33291;46.222;26.460;2023-07-20T06:12:16;95880.72;;;21.98;81.08
47556;BME280;33291;46.222;26.460;2023-07-20T06:14:41;95875.91;;;22.07;80.90
47556;BME280;33291;46.222;26.460;2023-07-20T06:17:06;95882.03;;;22.19;80.96
47556;BME280;33291;46.222;26.460;2023-07-20T06:19:32;95878.03;;;22.28;80.14
47556;BME280;33291;46.222;26.460;2023-07-20T06:21:58;95874.47;;;22.34;79.42
47556;BME280;33291;46.222;26.460;2023-07-20T06:24:23;95874.03;;;22.49;79.18
47556;BME280;33291;46.222;26.460;2023-07-20T06:26:49;95865.97;;;22.56;79.32
47556;BME280;33291;46.222;26.460;2023-07-20T06:29:14;95877.75;;;22.72;78.69
47556;BME280;33291;46.222;26.460;2023-07-20T06:31:39;95881.66;;;22.81;78.23
47556;BME280;33291;46.222;26.460;2023-07-20T06:34:05;95867.94;;;22.84;77.83
47556;BME280;33291;46.222;26.460;2023-07-20T06:36:30;95871.75;;;23.00;77.03
47556;BME280;33291;46.222;26.460;2023-07-20T06:38:56;95867.72;;;23.10;75.89
47556;BME280;33291;46.222;26.460;2023-07-20T06:41:22;95863.88;;;23.17;75.34
47556;BME280;33291;46.222;26.460;2023-07-20T06:43:47;95857.72;;;23.29;74.52
47556;BME280;33291;46.222;26.460;2023-07-20T06:46:13;95862.78;;;23.42;73.33
47556;BME280;33291;46.222;26.460;2023-07-20T06:48:39;95863.00;;;23.52;73.01
47556;BME280;33291;46.222;26.460;2023-07-20T06:51:04;95860.78;;;23.61;71.92
47556;BME280;33291;46.222;26.460;2023-07-20T06:53:30;95849.97;;;23.68;71.30
47556;BME280;33291;46.222;26.460;2023-07-20T06:55:56;95849.22;;;23.84;70.42
47556;BME280;33291;46.222;26.460;2023-07-20T06:58:24;95858.53;;;23.99;69.48
47556;BME280;33291;46.222;26.460;2023-07-20T07:00:51;95863.47;;;24.07;68.79
47556;BME280;33291;46.222;26.460;2023-07-20T07:03:16;95855.63;;;24.17;68.37
47556;BME280;33291;46.222;26.460;2023-07-20T07:05:43;95854.28;;;24.32;67.52
47556;BME280;33291;46.222;26.460;2023-07-20T07:08:10;95854.38;;;24.37;66.99
47556;BME280;33291;46.222;26.460;2023-07-20T07:10:36;95846.53;;;24.47;66.51
47556;BME280;33291;46.222;26.460;2023-07-20T07:13:02;95847.53;;;24.58;66.12
47556;BME280;33291;46.222;26.460;2023-07-20T07:15:27;95838.31;;;24.65;65.21
47556;BME280;33291;46.222;26.460;2023-07-20T07:17:53;95822.69;;;24.69;65.67
47556;BME280;33291;46.222;26.460;2023-07-20T07:20:19;95844.84;;;24.92;66.24
47556;BME280;33291;46.222;26.460;2023-07-20T07:22:45;95830.81;;;25.01;64.72
47556;BME280;33291;46.222;26.460;2023-07-20T07:25:10;95828.06;;;25.13;63.83
47556;BME280;33291;46.222;26.460;2023-07-20T07:27:36;95835.44;;;25.28;63.82
47556;BME280;33291;46.222;26.460;2023-07-20T07:30:03;95836.88;;;25.36;62.69
47556;BME280;33291;46.222;26.460;2023-07-20T07:32:28;95845.66;;;25.36;62.59
47556;BME280;33291;46.222;26.460;2023-07-20T07:34:54;95847.34;;;25.43;62.90
47556;BME280;33291;46.222;26.460;2023-07-20T07:37:20;95845.25;;;25.45;63.56
47556;BME280;33291;46.222;26.460;2023-07-20T07:39:45;95840.50;;;25.52;63.39
47556;BME280;33291;46.222;26.460;2023-07-20T07:42:11;95833.63;;;25.56;62.72
47556;BME280;33291;46.222;26.460;2023-07-20T07:44:37;95838.09;;;25.50;62.78
47556;BME280;33291;46.222;26.460;2023-07-20T07:47:03;95843.78;;;25.59;64.11
47556;BME280;33291;46.222;26.460;2023-07-20T07:49:29;95843.25;;;25.57;63.29
47556;BME280;33291;46.222;26.460;2023-07-20T07:51:54;95835.19;;;25.52;62.70
47556;BME280;33291;46.222;26.460;2023-07-20T07:54:20;95848.00;;;25.55;62.60
47556;BME280;33291;46.222;26.460;2023-07-20T07:56:45;95855.50;;;25.58;63.71
47556;BME280;33291;46.222;26.460;2023-07-20T07:59:11;95845.16;;;25.62;63.97
47556;BME280;33291;46.222;26.460;2023-07-20T08:01:36;95844.16;;;25.68;62.57
47556;BME280;33291;46.222;26.460;2023-07-20T08:04:02;95845.81;;;25.74;61.31
47556;BME280;33291;46.222;26.460;2023-07-20T08:06:29;95842.94;;;25.81;61.63
47556;BME280;33291;46.222;26.460;2023-07-20T08:08:54;95838.22;;;25.88;58.31
47556;BME280;33291;46.222;26.460;2023-07-20T08:11:19;95858.03;;;25.97;52.66
47556;BME280;33291;46.222;26.460;2023-07-20T08:13:45;95854.41;;;26.03;50.94
47556;BME280;33291;46.222;26.460;2023-07-20T08:16:13;95853.03;;;26.01;51.84
47556;BME280;33291;46.222;26.460;2023-07-20T08:18:39;95852.72;;;25.97;50.73
47556;BME280;33291;46.222;26.460;2023-07-20T08:21:04;95856.44;;;25.96;50.08
47556;BME280;33291;46.222;26.460;2023-07-20T08:23:30;95832.03;;;25.82;49.57
47556;BME280;33291;46.222;26.460;2023-07-20T08:25:55;95855.50;;;26.08;49.90
47556;BME280;33291;46.222;26.460;2023-07-20T08:28:21;95848.91;;;26.15;49.77
47556;BME280;33291;46.222;26.460;2023-07-20T08:30:48;95851.16;;;26.29;50.53
47556;BME280;33291;46.222;26.460;2023-07-20T08:33:15;95848.84;;;26.42;48.85
47556;BME280;33291;46.222;26.460;2023-07-20T08:35:41;95847.91;;;26.59;47.53
47556;BME280;33291;46.222;26.460;2023-07-20T08:38:07;95842.06;;;26.62;47.33
47556;BME280;33291;46.222;26.460;2023-07-20T08:40:41;95843.72;;;26.68;47.68
47556;BME280;33291;46.222;26.460;2023-07-20T08:43:07;95845.09;;;26.76;47.59
47556;BME280;33291;46.222;26.460;2023-07-20T08:45:36;95849.75;;;26.91;47.32
47556;BME280;33291;46.222;26.460;2023-07-20T08:48:05;95855.97;;;27.07;45.72
47556;BME280;33291;46.222;26.460;2023-07-20T08:50:31;95835.41;;;27.12;45.79
47556;BME280;33291;46.222;26.460;2023-07-20T08:52:58;95841.88;;;27.27;45.40
47556;BME280;33291;46.222;26.460;2023-07-20T08:55:26;95831.78;;;27.34;44.96
47556;BME280;33291;46.222;26.460;2023-07-20T08:57:57;95836.66;;;27.47;43.76
47556;BME280;33291;46.222;26.460;2023-07-20T09:00:24;95821.66;;;27.46;43.58
47556;BME280;33291;46.222;26.460;2023-07-20T09:02:52;95828.63;;;27.53;42.41
47556;BME280;33291;46.222;26.460;2023-07-20T09:05:22;95827.31;;;27.55;42.22
47556;BME280;33291;46.222;26.460;2023-07-20T09:07:48;95832.94;;;27.69;42.15
47556;BME280;33291;46.222;26.460;2023-07-20T09:10:13;95841.53;;;27.76;42.66
47556;BME280;33291;46.222;26.460;2023-07-20T09:12:41;95826.56;;;27.86;41.96
47556;BME280;33291;46.222;26.460;2023-07-20T09:15:08;95831.94;;;27.91;41.53
47556;BME280;33291;46.222;26.460;2023-07-20T09:17:34;95842.16;;;27.99;41.78
47556;BME280;33291;46.222;26.460;2023-07-20T09:20:04;95830.63;;;28.09;40.49
47556;BME280;33291;46.222;26.460;2023-07-20T09:22:37;95830.38;;;28.10;40.62
47556;BME280;33291;46.222;26.460;2023-07-20T09:25:14;95832.25;;;28.10;40.27
47556;BME280;33291;46.222;26.460;2023-07-20T09:27:41;95819.38;;;28.12;41.24
47556;BME280;33291;46.222;26.460;2023-07-20T09:30:07;95843.75;;;28.10;40.55
47556;BME280;33291;46.222;26.460;2023-07-20T09:35:07;95823.41;;;28.25;40.83
47556;BME280;33291;46.222;26.460;2023-07-20T09:37:37;95813.22;;;28.42;41.86
47556;BME280;33291;46.222;26.460;2023-07-20T09:40:06;95814.28;;;28.46;42.04
47556;BME280;33291;46.222;26.460;2023-07-20T09:42:35;95810.81;;;28.51;41.92
47556;BME280;33291;46.222;26.460;2023-07-20T09:45:02;95803.03;;;28.49;41.14
47556;BME280;33291;46.222;26.460;2023-07-20T09:47:27;95816.97;;;28.51;40.98
47556;BME280;33291;46.222;26.460;2023-07-20T09:50:00;95794.47;;;28.52;43.17
47556;BME280;33291;46.222;26.460;2023-07-20T09:52:26;95804.38;;;28.47;43.65
47556;BME280;33291;46.222;26.460;2023-07-20T09:54:53;95798.22;;;28.36;45.00
47556;BME280;33291;46.222;26.460;2023-07-20T09:57:21;95799.59;;;28.23;44.96
47556;BME280;33291;46.222;26.460;2023-07-20T09:59:46;95776.00;;;28.15;44.83
47556;BME280;33291;46.222;26.460;2023-07-20T10:02:32;95781.63;;;28.39;44.60
47556;BME280;33291;46.222;26.460;2023-07-20T10:05:03;95791.78;;;28.52;41.53
47556;BME280;33291;46.222;26.460;2023-07-20T10:07:35;95781.09;;;28.63;41.41
47556;BME280;33291;46.222;26.460;2023-07-20T10:10:02;95783.75;;;28.68;42.30
47556;BME280;33291;46.222;26.460;2023-07-20T10:12:29;95784.28;;;28.70;40.84
47556;BME280;33291;46.222;26.460;2023-07-20T10:17:32;95773.28;;;28.71;42.84
47556;BME280;33291;46.222;26.460;2023-07-20T10:20:00;95756.94;;;28.68;41.30
47556;BME280;33291;46.222;26.460;2023-07-20T10:22:31;95763.06;;;28.79;42.42
47556;BME280;33291;46.222;26.460;2023-07-20T10:25:00;95760.94;;;28.81;40.84
47556;BME280;33291;46.222;26.460;2023-07-20T10:27:26;95776.25;;;28.70;40.77
47556;BME280;33291;46.222;26.460;2023-07-20T10:29:53;95758.56;;;28.53;42.10
47556;BME280;33291;46.222;26.460;2023-07-20T10:32:20;95767.16;;;28.50;42.05
47556;BME280;33291;46.222;26.460;2023-07-20T10:34:53;95771.19;;;28.43;41.79
47556;BME280;33291;46.222;26.460;2023-07-20T10:37:52;95776.53;;;28.53;41.65
47556;BME280;33291;46.222;26.460;2023-07-20T10:40:30;95780.56;;;28.61;41.70
47556;BME280;33291;46.222;26.460;2023-07-20T10:43:02;95773.81;;;28.74;42.39
47556;BME280;33291;46.222;26.460;2023-07-20T10:45:35;95767.88;;;28.82;40.52
47556;BME280;33291;46.222;26.460;2023-07-20T10:48:05;95763.34;;;28.82;41.76
47556;BME280;33291;46.222;26.460;2023-07-20T10:50:32;95777.00;;;28.91;41.57
47556;BME280;33291;46.222;26.460;2023-07-20T10:53:10;95767.56;;;28.94;40.09
47556;BME280;33291;46.222;26.460;2023-07-20T10:55:37;95763.84;;;28.95;39.91
47556;BME280;33291;46.222;26.460;2023-07-20T10:58:20;95763.53;;;29.06;40.63
47556;BME280;33291;46.222;26.460;2023-07-20T11:01:00;95757.84;;;29.13;40.31
47556;BME280;33291;46.222;26.460;2023-07-20T11:03:30;95745.50;;;29.17;40.27
47556;BME280;33291;46.222;26.460;2023-07-20T11:05:57;95739.56;;;29.26;40.22
47556;BME280;33291;46.222;26.460;2023-07-20T11:08:40;95740.09;;;29.33;39.08
47556;BME280;33291;46.222;26.460;2023-07-20T11:11:28;95734.97;;;29.36;38.69
47556;BME280;33291;46.222;26.460;2023-07-20T11:14:01;95730.69;;;29.35;38.83
47556;BME280;33291;46.222;26.460;2023-07-20T11:16:38;95730.97;;;29.34;37.77
47556;BME280;33291;46.222;26.460;2023-07-20T11:19:05;95728.84;;;29.26;38.19
47556;BME280;33291;46.222;26.460;2023-07-20T11:21:41;95729.13;;;29.29;37.55
47556;BME280;33291;46.222;26.460;2023-07-20T11:24:07;95733.38;;;29.35;38.20
47556;BME280;33291;46.222;26.460;2023-07-20T11:26:44;95731.16;;;29.42;37.97
47556;BME280;33291;46.222;26.460;2023-07-20T11:29:10;95725.50;;;29.49;36.63
47556;BME280;33291;46.222;26.460;2023-07-20T11:31:38;95721.47;;;29.52;35.96
47556;BME280;33291;46.222;26.460;2023-07-20T11:34:03;95723.88;;;29.53;35.30
47556;BME280;33291;46.222;26.460;2023-07-20T11:36:29;95723.31;;;29.56;34.89
47556;BME280;33291;46.222;26.460;2023-07-20T11:38:55;95714.72;;;29.59;34.68
47556;BME280;33291;46.222;26.460;2023-07-20T11:41:20;95715.72;;;29.64;33.26
47556;BME280;33291;46.222;26.460;2023-07-20T11:43:47;95727.31;;;29.59;32.93
47556;BME280;33291;46.222;26.460;2023-07-20T11:46:12;95739.09;;;29.63;33.12
47556;BME280;33291;46.222;26.460;2023-07-20T11:48:38;95729.41;;;29.67;33.46
47556;BME280;33291;46.222;26.460;2023-07-20T11:51:05;95726.66;;;29.77;34.51
47556;BME280;33291;46.222;26.460;2023-07-20T11:53:31;95722.88;;;29.84;34.77
47556;BME280;33291;46.222;26.460;2023-07-20T11:55:59;95722.53;;;29.90;33.70
47556;BME280;33291;46.222;26.460;2023-07-20T11:58:24;95701.06;;;29.90;33.08
47556;BME280;33291;46.222;26.460;2023-07-20T12:00:55;95712.31;;;29.92;33.50
47556;BME280;33291;46.222;26.460;2023-07-20T12:03:21;95696.47;;;29.91;33.36
47556;BME280;33291;46.222;26.460;2023-07-20T12:05:46;95707.94;;;30.02;33.50
47556;BME280;33291;46.222;26.460;2023-07-20T12:08:12;95689.97;;;30.02;33.02
47556;BME280;33291;46.222;26.460;2023-07-20T12:10:39;95687.28;;;30.02;33.28
47556;BME280;33291;46.222;26.460;2023-07-20T12:13:10;95708.47;;;30.04;33.10
47556;BME280;33291;46.222;26.460;2023-07-20T12:15:39;95705.53;;;30.00;33.18
47556;BME280;33291;46.222;26.460;2023-07-20T12:18:05;95699.38;;;30.00;33.48
47556;BME280;33291;46.222;26.460;2023-07-20T12:20:32;95689.09;;;30.07;33.10
47556;BME280;33291;46.222;26.460;2023-07-20T12:23:08;95691.69;;;30.17;33.40
47556;BME280;33291;46.222;26.460;2023-07-20T12:25:45;95709.00;;;30.30;34.12
47556;BME280;33291;46.222;26.460;2023-07-20T12:30:38;95713.13;;;30.22;34.06
47556;BME280;33291;46.222;26.460;2023-07-20T12:33:04;95700.53;;;30.18;33.86
47556;BME280;33291;46.222;26.460;2023-07-20T12:35:31;95695.97;;;30.18;34.98
47556;BME280;33291;46.222;26.460;2023-07-20T12:37:57;95705.19;;;30.36;33.55
47556;BME280;33291;46.222;26.460;2023-07-20T12:40:22;95709.69;;;30.46;33.73
47556;BME280;33291;46.222;26.460;2023-07-20T12:42:48;95704.53;;;30.50;31.90
47556;BME280;33291;46.222;26.460;2023-07-20T12:45:14;95703.69;;;30.54;31.89
47556;BME280;33291;46.222;26.460;2023-07-20T12:47:40;95711.25;;;30.52;32.27
47556;BME280;33291;46.222;26.460;2023-07-20T12:50:06;95696.94;;;30.57;32.00
47556;BME280;33291;46.222;26.460;2023-07-20T12:52:36;95695.13;;;30.52;31.93
47556;BME280;33291;46.222;26.460;2023-07-20T12:55:02;95702.03;;;30.58;31.33
47556;BME280;33291;46.222;26.460;2023-07-20T12:57:28;95701.09;;;30.44;30.72
47556;BME280;33291;46.222;26.460;2023-07-20T12:59:53;95702.50;;;30.36;31.02